20分钟前
罗盘
风向 的 风向 000° Graulhet-Montdragon Airport 10/28
风: 2 千吨, 1 beaufort
0 500 1.500 3.000 5.000 8.000 10.000
CAVOK
METAR LFCK 301200Z AUTO VRB02KT CAVOK 06/M03 Q1028 NOSIG

METAR定义 | 嵌入

24小时趋势

航班类别VFRLIFR
温度5 °C-4 °C
风速9 千吨0 千吨
能见度10 公里+0 米

更多历史数据

下载我们的安卓应用程序

从你的主屏幕上轻松地访问你的航空天气。
只需一次付费,您就可以获得无广告的体验。

您会帮助我们保持Metar-Taf.com正常运行吗?
您的贡献有助于网站的进一步开发并支付费用。

没有更多广告

您是捐款5美元还是更多?然后,我们将永远不会再向您展示广告,这是我们永恒的感谢!
捐赠前先登录

METAR Graulhet-Montdragon Airport

Graulhet-Montdragon Airport是Graulhet/Montdragon,法国中的小机场。 机场有{a,plural,=1{一条跑道} other{#跑道}}: 10/28

Graulhet-Montdragon Airport最近未发布观察结果。相反,我们向您显示33 km的报告Castres-Mazamet Airport。 该报告是针对2021年11月30日 13:00, 当地时间进行的。

机场观察

可变方向的风很小或没有风。

天气为CAVOK。这意味着在5.000 ft或MSA(最低安全高度)以下(以较高者为准)以下没有云。这也意味着没有观测到积雨云或高耸的积云,可见度为10 公里 或者更多或更高。此外,不会有雾,降雨或其他重要天气。

温度为6 °C,阵风为5 °C。 露点为-3 °C,相对湿度为53%。 海平面上的气压为1028 压力 (QNH)。

白天

今天,太阳从08:04升起,在17:16降落。 这适用于Graulhet-Montdragon Airport,世界夏令时可能有所不同。 当地时间与世界标准时间之间的时差为+1 小时。 当前,没有夏令时有效。

公司介绍

我们没有关于这个机场的公司信息。

体会

到Vliegles.nl去找飞行课程,跳伞和其他飞行体验。 浏览页面,了解Graulhet-Montdragon Airport附近所有可用的活动。 你也可以使用搜索功能来寻找你所在地附近的特定飞行课程、跳伞或其他飞行体验。

您是否要在网站上Graulhet-Montdragon Airport飞行的天气? 阅读更多   自由!